Terminal Aerodrome Forecast
Issued by NWS

Current Version | Previous Version | Graphics & Text | Print | Product List | Glossary On
Versions: 1 2 3 4 5 6 7 8 9 10 11 12 13 14 15 16 17 18 19
000
FTUS41 KRNK 282157 AAB
TAFLWB
TAF AMD
KLWB 282157Z 2822/2918 23004KT P6SM SCT100 BKN250
     FM290400 24004KT P6SM VCSH SCT040 BKN250
     FM290700 24006KT P6SM -SHRA SCT035 OVC100
     FM291000 28007KT 4SM -SHRA SCT012 OVC035
     FM291100 30005KT 1/4SM -RA FG SCT006 OVC012
     FM291400 29008KT P6SM OVC025=

USA.gov is the U.S. government's official web portal to all federal, state and local government web resources and services.